Purfleet, United Kingdom
Current Conditions -  °F | °C
As of 11:20 AM on Saturday 20 Dec 2014 (Local Time) from EGLC Reporting Station
Few Clouds Few Clouds  
Wind Chill: 50°   Ceiling: Unl
Heat Index: 50°   Visibility: 6mi
Dew Point: 37°   Wind: 20mph
Humidity: 62%   Direction: 260°W
Pressure: 30.27"   Gusts: NA
Location:  51.48°N, 0.24°E
Report Text: EGLC 201120Z 26017KT 9999 FEW030 10/03 Q1025
Loading
Personal Weather Stations






























Interactive Weather Map New forecast layout! Learn more

10-Day Weather Forecast

Advertisements
Track Severe Weather on mobile